sensor_id;sensor_type;location;lat;lon;timestamp;temperature;humidity
9847;DHT22;68671;50.084;8.794;2023-11-19T00:00:59;13.20;99.90
9847;DHT22;68671;50.084;8.794;2023-11-19T00:03:27;13.20;99.90
9847;DHT22;68671;50.084;8.794;2023-11-19T00:05:54;13.20;99.90
9847;DHT22;68671;50.084;8.794;2023-11-19T00:08:21;13.30;99.90
9847;DHT22;68671;50.084;8.794;2023-11-19T00:10:51;13.30;99.90
9847;DHT22;68671;50.084;8.794;2023-11-19T00:13:18;13.30;99.90
9847;DHT22;68671;50.084;8.794;2023-11-19T00:15:45;13.40;99.90
9847;DHT22;68671;50.084;8.794;2023-11-19T00:18:13;13.40;99.90
9847;DHT22;68671;50.084;8.794;2023-11-19T00:20:42;13.40;99.90
9847;DHT22;68671;50.084;8.794;2023-11-19T00:23:10;13.40;99.90
9847;DHT22;68671;50.084;8.794;2023-11-19T00:25:37;13.40;99.90
9847;DHT22;68671;50.084;8.794;2023-11-19T00:28:06;13.50;99.90
9847;DHT22;68671;50.084;8.794;2023-11-19T00:30:33;13.50;99.90
9847;DHT22;68671;50.084;8.794;2023-11-19T00:33:00;13.50;99.90
9847;DHT22;68671;50.084;8.794;2023-11-19T00:35:27;13.50;99.90
9847;DHT22;68671;50.084;8.794;2023-11-19T00:37:54;13.60;99.90
9847;DHT22;68671;50.084;8.794;2023-11-19T00:40:21;13.60;99.90
9847;DHT22;68671;50.084;8.794;2023-11-19T00:42:48;13.60;99.90
9847;DHT22;68671;50.084;8.794;2023-11-19T00:45:17;13.60;99.90
9847;DHT22;68671;50.084;8.794;2023-11-19T00:47:44;13.70;99.90
9847;DHT22;68671;50.084;8.794;2023-11-19T00:50:11;13.70;99.90
9847;DHT22;68671;50.084;8.794;2023-11-19T00:52:38;13.70;99.90
9847;DHT22;68671;50.084;8.794;2023-11-19T00:55:06;13.70;99.90
9847;DHT22;68671;50.084;8.794;2023-11-19T00:57:33;13.70;99.90
9847;DHT22;68671;50.084;8.794;2023-11-19T00:59:59;13.70;99.90
9847;DHT22;68671;50.084;8.794;2023-11-19T01:02:28;13.70;99.90
9847;DHT22;68671;50.084;8.794;2023-11-19T01:04:54;13.80;99.90
9847;DHT22;68671;50.084;8.794;2023-11-19T01:07:22;13.80;99.90
9847;DHT22;68671;50.084;8.794;2023-11-19T01:09:49;13.80;99.90
9847;DHT22;68671;50.084;8.794;2023-11-19T01:12:16;13.80;99.90
9847;DHT22;68671;50.084;8.794;2023-11-19T01:14:43;13.80;99.90
9847;DHT22;68671;50.084;8.794;2023-11-19T01:17:10;13.80;99.90
9847;DHT22;68671;50.084;8.794;2023-11-19T01:19:38;13.80;99.90
9847;DHT22;68671;50.084;8.794;2023-11-19T01:22:05;13.90;99.90
9847;DHT22;68671;50.084;8.794;2023-11-19T01:24:32;13.80;99.90
9847;DHT22;68671;50.084;8.794;2023-11-19T01:26:59;13.90;99.90
9847;DHT22;68671;50.084;8.794;2023-11-19T01:29:26;13.80;99.90
9847;DHT22;68671;50.084;8.794;2023-11-19T01:31:53;13.90;99.90
9847;DHT22;68671;50.084;8.794;2023-11-19T01:34:20;14.00;99.90
9847;DHT22;68671;50.084;8.794;2023-11-19T01:36:48;14.00;99.90
9847;DHT22;68671;50.084;8.794;2023-11-19T01:39:15;14.00;99.90
9847;DHT22;68671;50.084;8.794;2023-11-19T01:41:42;14.00;99.90
9847;DHT22;68671;50.084;8.794;2023-11-19T01:44:09;14.00;99.90
9847;DHT22;68671;50.084;8.794;2023-11-19T01:46:39;14.10;99.90
9847;DHT22;68671;50.084;8.794;2023-11-19T01:49:07;14.00;99.90
9847;DHT22;68671;50.084;8.794;2023-11-19T01:51:35;14.10;99.90
9847;DHT22;68671;50.084;8.794;2023-11-19T01:54:04;14.10;99.90
9847;DHT22;68671;50.084;8.794;2023-11-19T01:56:32;14.10;99.90
9847;DHT22;68671;50.084;8.794;2023-11-19T01:58:59;14.10;99.90
9847;DHT22;68671;50.084;8.794;2023-11-19T02:01:27;14.20;99.90
9847;DHT22;68671;50.084;8.794;2023-11-19T02:03:55;14.20;99.90
9847;DHT22;68671;50.084;8.794;2023-11-19T02:06:24;14.20;99.90
9847;DHT22;68671;50.084;8.794;2023-11-19T02:08:51;14.10;99.90
9847;DHT22;68671;50.084;8.794;2023-11-19T02:11:20;14.20;99.90
9847;DHT22;68671;50.084;8.794;2023-11-19T02:13:47;14.20;99.90
9847;DHT22;68671;50.084;8.794;2023-11-19T02:16:14;14.30;99.90
9847;DHT22;68671;50.084;8.794;2023-11-19T02:18:40;14.30;99.90
9847;DHT22;68671;50.084;8.794;2023-11-19T02:21:08;14.30;99.90
9847;DHT22;68671;50.084;8.794;2023-11-19T02:23:36;14.30;99.90
9847;DHT22;68671;50.084;8.794;2023-11-19T02:26:10;14.30;99.90
9847;DHT22;68671;50.084;8.794;2023-11-19T02:28:42;14.30;99.90
9847;DHT22;68671;50.084;8.794;2023-11-19T02:31:09;14.40;99.90
9847;DHT22;68671;50.084;8.794;2023-11-19T02:33:36;14.30;99.90
9847;DHT22;68671;50.084;8.794;2023-11-19T02:36:04;14.30;99.90
9847;DHT22;68671;50.084;8.794;2023-11-19T02:38:32;14.30;99.90
9847;DHT22;68671;50.084;8.794;2023-11-19T02:41:00;14.40;99.90
9847;DHT22;68671;50.084;8.794;2023-11-19T02:43:30;14.40;99.90
9847;DHT22;68671;50.084;8.794;2023-11-19T02:46:00;14.40;99.90
9847;DHT22;68671;50.084;8.794;2023-11-19T02:48:27;14.40;99.90
9847;DHT22;68671;50.084;8.794;2023-11-19T02:50:54;14.40;99.90
9847;DHT22;68671;50.084;8.794;2023-11-19T02:53:23;14.40;99.90
9847;DHT22;68671;50.084;8.794;2023-11-19T02:55:53;14.40;99.90
9847;DHT22;68671;50.084;8.794;2023-11-19T02:58:26;14.40;99.90
9847;DHT22;68671;50.084;8.794;2023-11-19T03:00:54;14.50;99.90
9847;DHT22;68671;50.084;8.794;2023-11-19T03:03:26;14.50;99.90
9847;DHT22;68671;50.084;8.794;2023-11-19T03:05:56;14.50;99.90
9847;DHT22;68671;50.084;8.794;2023-11-19T03:08:23;14.50;99.90
9847;DHT22;68671;50.084;8.794;2023-11-19T03:10:50;14.50;99.90
9847;DHT22;68671;50.084;8.794;2023-11-19T03:13:17;14.50;99.90
9847;DHT22;68671;50.084;8.794;2023-11-19T03:15:44;14.50;99.90
9847;DHT22;68671;50.084;8.794;2023-11-19T03:18:11;14.60;99.90
9847;DHT22;68671;50.084;8.794;2023-11-19T03:20:39;14.60;99.90
9847;DHT22;68671;50.084;8.794;2023-11-19T03:23:06;14.60;99.90
9847;DHT22;68671;50.084;8.794;2023-11-19T03:25:33;14.60;99.90
9847;DHT22;68671;50.084;8.794;2023-11-19T03:28:02;14.50;99.90
9847;DHT22;68671;50.084;8.794;2023-11-19T03:30:29;14.50;99.90
9847;DHT22;68671;50.084;8.794;2023-11-19T03:32:56;14.40;99.90
9847;DHT22;68671;50.084;8.794;2023-11-19T03:35:24;14.50;99.90
9847;DHT22;68671;50.084;8.794;2023-11-19T03:37:52;14.50;99.90
9847;DHT22;68671;50.084;8.794;2023-11-19T03:40:19;14.50;99.90
9847;DHT22;68671;50.084;8.794;2023-11-19T03:42:46;14.40;99.90
9847;DHT22;68671;50.084;8.794;2023-11-19T03:45:13;14.40;99.90
9847;DHT22;68671;50.084;8.794;2023-11-19T03:47:41;14.30;99.90
9847;DHT22;68671;50.084;8.794;2023-11-19T03:50:08;14.40;99.90
9847;DHT22;68671;50.084;8.794;2023-11-19T03:52:35;14.30;99.90
9847;DHT22;68671;50.084;8.794;2023-11-19T03:55:04;14.30;99.90
9847;DHT22;68671;50.084;8.794;2023-11-19T03:57:34;14.30;99.90
9847;DHT22;68671;50.084;8.794;2023-11-19T04:00:01;14.20;99.90
9847;DHT22;68671;50.084;8.794;2023-11-19T04:02:34;14.20;99.90
9847;DHT22;68671;50.084;8.794;2023-11-19T04:05:01;14.20;99.90
9847;DHT22;68671;50.084;8.794;2023-11-19T04:07:28;14.10;99.90
9847;DHT22;68671;50.084;8.794;2023-11-19T04:09:55;14.20;99.90
9847;DHT22;68671;50.084;8.794;2023-11-19T04:12:23;14.10;99.90
9847;DHT22;68671;50.084;8.794;2023-11-19T04:14:50;14.10;99.90
9847;DHT22;68671;50.084;8.794;2023-11-19T04:17:17;14.00;99.90
9847;DHT22;68671;50.084;8.794;2023-11-19T04:19:44;14.00;99.90
9847;DHT22;68671;50.084;8.794;2023-11-19T04:22:11;14.00;99.90
9847;DHT22;68671;50.084;8.794;2023-11-19T04:24:38;14.00;99.90
9847;DHT22;68671;50.084;8.794;2023-11-19T04:27:06;13.90;99.90
9847;DHT22;68671;50.084;8.794;2023-11-19T04:29:34;13.90;99.90
9847;DHT22;68671;50.084;8.794;2023-11-19T04:32:02;13.90;99.90
9847;DHT22;68671;50.084;8.794;2023-11-19T04:34:29;13.90;99.90
9847;DHT22;68671;50.084;8.794;2023-11-19T04:36:56;13.80;99.90
9847;DHT22;68671;50.084;8.794;2023-11-19T04:39:23;13.80;99.90
9847;DHT22;68671;50.084;8.794;2023-11-19T04:41:51;13.80;99.90
9847;DHT22;68671;50.084;8.794;2023-11-19T04:44:18;13.80;99.90
9847;DHT22;68671;50.084;8.794;2023-11-19T04:46:47;13.80;99.90
9847;DHT22;68671;50.084;8.794;2023-11-19T04:49:14;13.80;99.90
9847;DHT22;68671;50.084;8.794;2023-11-19T04:51:43;13.80;99.90
9847;DHT22;68671;50.084;8.794;2023-11-19T04:54:12;13.80;99.90
9847;DHT22;68671;50.084;8.794;2023-11-19T04:56:39;13.80;99.90
9847;DHT22;68671;50.084;8.794;2023-11-19T04:59:06;13.90;99.90
9847;DHT22;68671;50.084;8.794;2023-11-19T05:01:34;13.90;99.90
9847;DHT22;68671;50.084;8.794;2023-11-19T05:04:03;13.90;99.90
9847;DHT22;68671;50.084;8.794;2023-11-19T05:06:30;13.90;99.90
9847;DHT22;68671;50.084;8.794;2023-11-19T05:08:59;13.90;99.90
9847;DHT22;68671;50.084;8.794;2023-11-19T05:11:30;13.90;99.90
9847;DHT22;68671;50.084;8.794;2023-11-19T05:13:57;13.90;99.90
9847;DHT22;68671;50.084;8.794;2023-11-19T05:16:24;13.90;99.90
9847;DHT22;68671;50.084;8.794;2023-11-19T05:18:50;14.00;99.90
9847;DHT22;68671;50.084;8.794;2023-11-19T05:21:19;14.00;99.90
9847;DHT22;68671;50.084;8.794;2023-11-19T05:23:46;13.90;99.90
9847;DHT22;68671;50.084;8.794;2023-11-19T05:26:18;14.00;99.90
9847;DHT22;68671;50.084;8.794;2023-11-19T05:28:47;14.00;99.90
9847;DHT22;68671;50.084;8.794;2023-11-19T05:31:14;14.00;99.90
9847;DHT22;68671;50.084;8.794;2023-11-19T05:33:41;14.10;99.90
9847;DHT22;68671;50.084;8.794;2023-11-19T05:36:08;14.10;99.90
9847;DHT22;68671;50.084;8.794;2023-11-19T05:38:36;14.10;99.90
9847;DHT22;68671;50.084;8.794;2023-11-19T05:41:04;14.10;99.90
9847;DHT22;68671;50.084;8.794;2023-11-19T05:43:31;14.10;99.90
9847;DHT22;68671;50.084;8.794;2023-11-19T05:45:58;14.10;99.90
9847;DHT22;68671;50.084;8.794;2023-11-19T05:48:27;14.20;99.90
9847;DHT22;68671;50.084;8.794;2023-11-19T05:50:54;14.20;99.90
9847;DHT22;68671;50.084;8.794;2023-11-19T05:53:21;14.20;99.90
9847;DHT22;68671;50.084;8.794;2023-11-19T05:55:49;14.20;99.90
9847;DHT22;68671;50.084;8.794;2023-11-19T05:58:23;14.30;99.90
9847;DHT22;68671;50.084;8.794;2023-11-19T06:00:50;14.20;99.90
9847;DHT22;68671;50.084;8.794;2023-11-19T06:03:17;14.20;99.90
9847;DHT22;68671;50.084;8.794;2023-11-19T06:05:44;14.20;99.90
9847;DHT22;68671;50.084;8.794;2023-11-19T06:08:11;14.20;99.90
9847;DHT22;68671;50.084;8.794;2023-11-19T06:10:40;14.20;99.90
9847;DHT22;68671;50.084;8.794;2023-11-19T06:13:08;14.20;99.90
9847;DHT22;68671;50.084;8.794;2023-11-19T06:15:37;14.20;99.90
9847;DHT22;68671;50.084;8.794;2023-11-19T06:18:04;14.20;99.90
9847;DHT22;68671;50.084;8.794;2023-11-19T06:20:32;14.10;99.90
9847;DHT22;68671;50.084;8.794;2023-11-19T06:22:59;14.10;99.90
9847;DHT22;68671;50.084;8.794;2023-11-19T06:25:27;14.10;99.90
9847;DHT22;68671;50.084;8.794;2023-11-19T06:27:54;14.10;99.90
9847;DHT22;68671;50.084;8.794;2023-11-19T06:30:24;14.00;99.90
9847;DHT22;68671;50.084;8.794;2023-11-19T06:32:51;14.00;99.90
9847;DHT22;68671;50.084;8.794;2023-11-19T06:35:18;14.10;99.90
9847;DHT22;68671;50.084;8.794;2023-11-19T06:37:45;14.00;99.90
9847;DHT22;68671;50.084;8.794;2023-11-19T06:40:12;14.00;99.90
9847;DHT22;68671;50.084;8.794;2023-11-19T06:42:41;14.00;99.90
9847;DHT22;68671;50.084;8.794;2023-11-19T06:45:08;14.00;99.90
9847;DHT22;68671;50.084;8.794;2023-11-19T06:47:37;14.00;99.90
9847;DHT22;68671;50.084;8.794;2023-11-19T06:50:05;14.00;99.90
9847;DHT22;68671;50.084;8.794;2023-11-19T06:52:32;14.00;99.90
9847;DHT22;68671;50.084;8.794;2023-11-19T06:54:59;14.00;99.90
9847;DHT22;68671;50.084;8.794;2023-11-19T06:57:26;13.90;99.90
9847;DHT22;68671;50.084;8.794;2023-11-19T06:59:54;13.90;99.90
9847;DHT22;68671;50.084;8.794;2023-11-19T07:02:21;13.90;99.90
9847;DHT22;68671;50.084;8.794;2023-11-19T07:04:50;14.00;99.90
9847;DHT22;68671;50.084;8.794;2023-11-19T07:07:17;13.90;99.90
9847;DHT22;68671;50.084;8.794;2023-11-19T07:09:46;13.90;99.90
9847;DHT22;68671;50.084;8.794;2023-11-19T07:12:13;14.00;99.90
9847;DHT22;68671;50.084;8.794;2023-11-19T07:14:40;13.90;99.90
9847;DHT22;68671;50.084;8.794;2023-11-19T07:17:08;13.90;99.90
9847;DHT22;68671;50.084;8.794;2023-11-19T07:19:35;13.90;99.90
9847;DHT22;68671;50.084;8.794;2023-11-19T07:22:05;13.90;99.90
9847;DHT22;68671;50.084;8.794;2023-11-19T07:24:32;13.90;99.90
9847;DHT22;68671;50.084;8.794;2023-11-19T07:27:00;13.90;99.90
9847;DHT22;68671;50.084;8.794;2023-11-19T07:29:29;13.90;99.90
9847;DHT22;68671;50.084;8.794;2023-11-19T07:31:57;13.90;99.90
9847;DHT22;68671;50.084;8.794;2023-11-19T07:34:24;13.90;99.90
9847;DHT22;68671;50.084;8.794;2023-11-19T07:36:51;13.90;99.90
9847;DHT22;68671;50.084;8.794;2023-11-19T07:39:20;13.80;99.90
9847;DHT22;68671;50.084;8.794;2023-11-19T07:41:47;13.80;99.90
9847;DHT22;68671;50.084;8.794;2023-11-19T07:44:15;13.80;99.90
9847;DHT22;68671;50.084;8.794;2023-11-19T07:46:42;13.90;99.90
9847;DHT22;68671;50.084;8.794;2023-11-19T07:49:10;13.90;99.90
9847;DHT22;68671;50.084;8.794;2023-11-19T07:51:38;13.80;99.90
9847;DHT22;68671;50.084;8.794;2023-11-19T07:54:05;13.90;99.90
9847;DHT22;68671;50.084;8.794;2023-11-19T07:56:33;13.90;99.90
9847;DHT22;68671;50.084;8.794;2023-11-19T07:59:01;13.90;99.90
9847;DHT22;68671;50.084;8.794;2023-11-19T08:01:27;13.90;99.90
9847;DHT22;68671;50.084;8.794;2023-11-19T08:03:54;14.00;99.90
9847;DHT22;68671;50.084;8.794;2023-11-19T08:06:21;13.90;99.90
9847;DHT22;68671;50.084;8.794;2023-11-19T08:08:48;13.90;99.90
9847;DHT22;68671;50.084;8.794;2023-11-19T08:11:15;13.90;99.90
9847;DHT22;68671;50.084;8.794;2023-11-19T08:13:43;13.90;99.90
9847;DHT22;68671;50.084;8.794;2023-11-19T08:16:10;13.90;99.90
9847;DHT22;68671;50.084;8.794;2023-11-19T08:18:37;14.00;99.90
9847;DHT22;68671;50.084;8.794;2023-11-19T08:21:05;14.00;99.90
9847;DHT22;68671;50.084;8.794;2023-11-19T08:23:32;14.00;99.90
9847;DHT22;68671;50.084;8.794;2023-11-19T08:25:59;14.10;99.90
9847;DHT22;68671;50.084;8.794;2023-11-19T08:28:26;14.10;99.90
9847;DHT22;68671;50.084;8.794;2023-11-19T08:30:54;14.10;99.90
9847;DHT22;68671;50.084;8.794;2023-11-19T08:33:21;14.20;99.90
9847;DHT22;68671;50.084;8.794;2023-11-19T08:35:49;14.10;99.90
9847;DHT22;68671;50.084;8.794;2023-11-19T08:38:16;14.10;99.90
9847;DHT22;68671;50.084;8.794;2023-11-19T08:40:42;14.10;99.90
9847;DHT22;68671;50.084;8.794;2023-11-19T08:43:09;14.20;99.90
9847;DHT22;68671;50.084;8.794;2023-11-19T08:45:36;14.20;99.90
9847;DHT22;68671;50.084;8.794;2023-11-19T08:48:05;14.30;99.90
9847;DHT22;68671;50.084;8.794;2023-11-19T08:50:32;14.40;99.90
9847;DHT22;68671;50.084;8.794;2023-11-19T08:52:59;14.40;99.90
9847;DHT22;68671;50.084;8.794;2023-11-19T08:55:26;14.50;99.90
9847;DHT22;68671;50.084;8.794;2023-11-19T08:57:52;14.50;99.90
9847;DHT22;68671;50.084;8.794;2023-11-19T09:00:19;14.50;99.90
9847;DHT22;68671;50.084;8.794;2023-11-19T09:02:46;14.50;99.90
9847;DHT22;68671;50.084;8.794;2023-11-19T09:05:15;14.50;99.90
9847;DHT22;68671;50.084;8.794;2023-11-19T09:07:42;14.60;99.90
9847;DHT22;68671;50.084;8.794;2023-11-19T09:10:09;14.50;99.90
9847;DHT22;68671;50.084;8.794;2023-11-19T09:12:37;14.60;99.90
9847;DHT22;68671;50.084;8.794;2023-11-19T09:15:04;14.60;99.90
9847;DHT22;68671;50.084;8.794;2023-11-19T09:17:31;14.60;99.90
9847;DHT22;68671;50.084;8.794;2023-11-19T09:19:58;14.60;99.90
9847;DHT22;68671;50.084;8.794;2023-11-19T09:22:27;14.70;99.90
9847;DHT22;68671;50.084;8.794;2023-11-19T09:24:54;14.70;99.90
9847;DHT22;68671;50.084;8.794;2023-11-19T09:27:21;14.70;99.90
9847;DHT22;68671;50.084;8.794;2023-11-19T09:29:47;14.70;99.90
9847;DHT22;68671;50.084;8.794;2023-11-19T09:32:16;14.70;99.90
9847;DHT22;68671;50.084;8.794;2023-11-19T09:34:43;14.80;99.90
9847;DHT22;68671;50.084;8.794;2023-11-19T09:37:10;14.80;99.90
9847;DHT22;68671;50.084;8.794;2023-11-19T09:39:38;14.90;99.90
9847;DHT22;68671;50.084;8.794;2023-11-19T09:42:08;14.90;99.90
9847;DHT22;68671;50.084;8.794;2023-11-19T09:44:37;14.90;99.90
9847;DHT22;68671;50.084;8.794;2023-11-19T09:47:05;14.90;99.90
9847;DHT22;68671;50.084;8.794;2023-11-19T09:49:33;15.00;99.90
9847;DHT22;68671;50.084;8.794;2023-11-19T09:52:03;15.00;99.90
9847;DHT22;68671;50.084;8.794;2023-11-19T09:54:30;15.10;99.90
9847;DHT22;68671;50.084;8.794;2023-11-19T09:56:59;15.20;99.90
9847;DHT22;68671;50.084;8.794;2023-11-19T09:59:29;15.20;99.90
9847;DHT22;68671;50.084;8.794;2023-11-19T10:01:56;15.30;99.90
9847;DHT22;68671;50.084;8.794;2023-11-19T10:04:24;15.30;99.90
9847;DHT22;68671;50.084;8.794;2023-11-19T10:06:52;15.30;99.90
9847;DHT22;68671;50.084;8.794;2023-11-19T10:09:19;15.40;99.90
9847;DHT22;68671;50.084;8.794;2023-11-19T10:11:46;15.40;99.90
9847;DHT22;68671;50.084;8.794;2023-11-19T10:14:15;15.40;99.90
9847;DHT22;68671;50.084;8.794;2023-11-19T10:16:44;15.50;99.90
9847;DHT22;68671;50.084;8.794;2023-11-19T10:19:18;15.50;99.90
9847;DHT22;68671;50.084;8.794;2023-11-19T10:21:46;15.50;99.90
9847;DHT22;68671;50.084;8.794;2023-11-19T10:24:13;15.50;99.90
9847;DHT22;68671;50.084;8.794;2023-11-19T10:26:40;15.60;99.90
9847;DHT22;68671;50.084;8.794;2023-11-19T10:29:08;15.60;99.90
9847;DHT22;68671;50.084;8.794;2023-11-19T10:31:40;15.50;99.90
9847;DHT22;68671;50.084;8.794;2023-11-19T10:34:24;15.50;99.90
9847;DHT22;68671;50.084;8.794;2023-11-19T10:36:52;15.50;99.90
9847;DHT22;68671;50.084;8.794;2023-11-19T10:39:19;15.50;99.90
9847;DHT22;68671;50.084;8.794;2023-11-19T10:41:49;15.60;99.90
9847;DHT22;68671;50.084;8.794;2023-11-19T10:44:31;15.60;99.90
9847;DHT22;68671;50.084;8.794;2023-11-19T10:47:00;15.60;99.90
9847;DHT22;68671;50.084;8.794;2023-11-19T10:49:27;15.70;99.90
9847;DHT22;68671;50.084;8.794;2023-11-19T10:51:55;15.70;99.90
9847;DHT22;68671;50.084;8.794;2023-11-19T10:54:24;15.70;99.90
9847;DHT22;68671;50.084;8.794;2023-11-19T10:56:55;15.70;99.90
9847;DHT22;68671;50.084;8.794;2023-11-19T10:59:23;15.80;99.90
9847;DHT22;68671;50.084;8.794;2023-11-19T11:01:53;15.70;99.90
9847;DHT22;68671;50.084;8.794;2023-11-19T11:04:23;15.70;99.90
9847;DHT22;68671;50.084;8.794;2023-11-19T11:06:51;15.80;99.90
9847;DHT22;68671;50.084;8.794;2023-11-19T11:09:21;15.80;99.90
9847;DHT22;68671;50.084;8.794;2023-11-19T11:11:50;15.80;99.90
9847;DHT22;68671;50.084;8.794;2023-11-19T11:14:21;15.80;99.90
9847;DHT22;68671;50.084;8.794;2023-11-19T11:16:49;15.80;99.90
9847;DHT22;68671;50.084;8.794;2023-11-19T11:19:16;15.90;99.90
9847;DHT22;68671;50.084;8.794;2023-11-19T11:21:51;15.90;99.90
9847;DHT22;68671;50.084;8.794;2023-11-19T11:24:48;15.90;99.90
9847;DHT22;68671;50.084;8.794;2023-11-19T11:27:36;15.90;99.90
9847;DHT22;68671;50.084;8.794;2023-11-19T11:30:17;15.90;99.90
9847;DHT22;68671;50.084;8.794;2023-11-19T11:32:53;15.90;99.90
9847;DHT22;68671;50.084;8.794;2023-11-19T11:35:31;16.00;99.90
9847;DHT22;68671;50.084;8.794;2023-11-19T11:38:06;15.90;99.90
9847;DHT22;68671;50.084;8.794;2023-11-19T11:40:33;15.90;99.90
9847;DHT22;68671;50.084;8.794;2023-11-19T11:43:01;15.90;99.90
9847;DHT22;68671;50.084;8.794;2023-11-19T11:45:37;15.90;99.90
9847;DHT22;68671;50.084;8.794;2023-11-19T11:48:09;15.90;99.90
9847;DHT22;68671;50.084;8.794;2023-11-19T11:50:47;16.00;99.90
9847;DHT22;68671;50.084;8.794;2023-11-19T11:53:21;16.10;99.90
9847;DHT22;68671;50.084;8.794;2023-11-19T11:55:57;16.20;99.90
9847;DHT22;68671;50.084;8.794;2023-11-19T11:58:31;16.20;99.90
9847;DHT22;68671;50.084;8.794;2023-11-19T12:00:58;16.20;99.90
9847;DHT22;68671;50.084;8.794;2023-11-19T12:03:28;16.20;99.90
9847;DHT22;68671;50.084;8.794;2023-11-19T12:05:57;16.20;99.90
9847;DHT22;68671;50.084;8.794;2023-11-19T12:08:27;16.20;99.90
9847;DHT22;68671;50.084;8.794;2023-11-19T12:10:56;16.20;99.90
9847;DHT22;68671;50.084;8.794;2023-11-19T12:13:29;16.20;99.90
9847;DHT22;68671;50.084;8.794;2023-11-19T12:16:09;16.10;99.90
9847;DHT22;68671;50.084;8.794;2023-11-19T12:18:36;16.10;99.90
9847;DHT22;68671;50.084;8.794;2023-11-19T12:21:05;16.10;99.90
9847;DHT22;68671;50.084;8.794;2023-11-19T12:23:44;16.10;99.90
9847;DHT22;68671;50.084;8.794;2023-11-19T12:26:33;16.10;99.90
9847;DHT22;68671;50.084;8.794;2023-11-19T12:29:01;16.00;99.90
9847;DHT22;68671;50.084;8.794;2023-11-19T12:31:29;16.10;99.90
9847;DHT22;68671;50.084;8.794;2023-11-19T12:33:57;16.00;99.90
9847;DHT22;68671;50.084;8.794;2023-11-19T12:36:24;16.10;99.90
9847;DHT22;68671;50.084;8.794;2023-11-19T12:38:52;16.20;99.90
9847;DHT22;68671;50.084;8.794;2023-11-19T12:41:19;16.10;99.90
9847;DHT22;68671;50.084;8.794;2023-11-19T12:43:49;16.00;99.90
9847;DHT22;68671;50.084;8.794;2023-11-19T12:46:20;16.10;99.90
9847;DHT22;68671;50.084;8.794;2023-11-19T12:48:47;16.10;99.90
9847;DHT22;68671;50.084;8.794;2023-11-19T12:51:14;16.10;99.90
9847;DHT22;68671;50.084;8.794;2023-11-19T12:53:49;16.10;99.90
9847;DHT22;68671;50.084;8.794;2023-11-19T12:56:17;16.10;99.90
9847;DHT22;68671;50.084;8.794;2023-11-19T12:58:44;16.10;99.90
9847;DHT22;68671;50.084;8.794;2023-11-19T13:01:16;16.10;99.90
9847;DHT22;68671;50.084;8.794;2023-11-19T13:03:43;16.10;99.90
9847;DHT22;68671;50.084;8.794;2023-11-19T13:06:11;16.00;99.90
9847;DHT22;68671;50.084;8.794;2023-11-19T13:08:38;15.90;99.90
9847;DHT22;68671;50.084;8.794;2023-11-19T13:11:06;15.90;99.90
9847;DHT22;68671;50.084;8.794;2023-11-19T13:13:56;15.80;99.90
9847;DHT22;68671;50.084;8.794;2023-11-19T13:16:24;15.80;99.90
9847;DHT22;68671;50.084;8.794;2023-11-19T13:18:52;15.70;99.90
9847;DHT22;68671;50.084;8.794;2023-11-19T13:21:19;15.70;99.90
9847;DHT22;68671;50.084;8.794;2023-11-19T13:23:46;15.70;99.90
9847;DHT22;68671;50.084;8.794;2023-11-19T13:26:13;15.70;99.90
9847;DHT22;68671;50.084;8.794;2023-11-19T13:28:40;15.70;99.90
9847;DHT22;68671;50.084;8.794;2023-11-19T13:31:08;15.70;99.90
9847;DHT22;68671;50.084;8.794;2023-11-19T13:33:36;15.60;99.90
9847;DHT22;68671;50.084;8.794;2023-11-19T13:36:03;15.60;99.90
9847;DHT22;68671;50.084;8.794;2023-11-19T13:38:33;15.60;99.90
9847;DHT22;68671;50.084;8.794;2023-11-19T13:41:00;15.60;99.90
9847;DHT22;68671;50.084;8.794;2023-11-19T13:43:26;15.60;99.90
9847;DHT22;68671;50.084;8.794;2023-11-19T13:45:54;15.60;99.90
9847;DHT22;68671;50.084;8.794;2023-11-19T13:48:23;15.50;99.90
9847;DHT22;68671;50.084;8.794;2023-11-19T13:50:50;15.50;99.90
9847;DHT22;68671;50.084;8.794;2023-11-19T13:53:17;15.50;99.90
9847;DHT22;68671;50.084;8.794;2023-11-19T13:55:44;15.50;99.90
9847;DHT22;68671;50.084;8.794;2023-11-19T13:58:11;15.50;99.90
9847;DHT22;68671;50.084;8.794;2023-11-19T14:00:38;15.50;99.90
9847;DHT22;68671;50.084;8.794;2023-11-19T14:03:07;15.50;99.90
9847;DHT22;68671;50.084;8.794;2023-11-19T14:05:37;15.40;99.90
9847;DHT22;68671;50.084;8.794;2023-11-19T14:08:04;15.50;99.90
9847;DHT22;68671;50.084;8.794;2023-11-19T14:10:37;15.50;99.90
9847;DHT22;68671;50.084;8.794;2023-11-19T14:13:05;15.40;99.90
9847;DHT22;68671;50.084;8.794;2023-11-19T14:15:32;15.40;99.90
9847;DHT22;68671;50.084;8.794;2023-11-19T14:17:59;15.40;99.90
9847;DHT22;68671;50.084;8.794;2023-11-19T14:20:26;15.40;99.90
9847;DHT22;68671;50.084;8.794;2023-11-19T14:22:55;15.40;99.90
9847;DHT22;68671;50.084;8.794;2023-11-19T14:25:21;15.30;99.90
9847;DHT22;68671;50.084;8.794;2023-11-19T14:27:49;15.40;99.90
9847;DHT22;68671;50.084;8.794;2023-11-19T14:30:16;15.40;99.90
9847;DHT22;68671;50.084;8.794;2023-11-19T14:32:43;15.40;99.90
9847;DHT22;68671;50.084;8.794;2023-11-19T14:35:11;15.40;99.90
9847;DHT22;68671;50.084;8.794;2023-11-19T14:37:39;15.40;99.90
9847;DHT22;68671;50.084;8.794;2023-11-19T14:40:08;15.30;99.90
9847;DHT22;68671;50.084;8.794;2023-11-19T14:42:37;15.40;99.90
9847;DHT22;68671;50.084;8.794;2023-11-19T14:45:05;15.40;99.90
9847;DHT22;68671;50.084;8.794;2023-11-19T14:47:32;15.30;99.90
9847;DHT22;68671;50.084;8.794;2023-11-19T14:49:59;15.40;99.90
9847;DHT22;68671;50.084;8.794;2023-11-19T14:52:26;15.40;99.90
9847;DHT22;68671;50.084;8.794;2023-11-19T14:54:53;15.40;99.90
9847;DHT22;68671;50.084;8.794;2023-11-19T14:57:23;15.30;99.90
9847;DHT22;68671;50.084;8.794;2023-11-19T14:59:50;15.30;99.90
9847;DHT22;68671;50.084;8.794;2023-11-19T15:02:17;15.20;99.90
9847;DHT22;68671;50.084;8.794;2023-11-19T15:04:44;15.20;99.90
9847;DHT22;68671;50.084;8.794;2023-11-19T15:07:11;15.10;99.90
9847;DHT22;68671;50.084;8.794;2023-11-19T15:09:38;15.10;99.90
9847;DHT22;68671;50.084;8.794;2023-11-19T15:12:05;15.00;99.90
9847;DHT22;68671;50.084;8.794;2023-11-19T15:14:34;15.00;99.90
9847;DHT22;68671;50.084;8.794;2023-11-19T15:17:01;14.90;99.90
9847;DHT22;68671;50.084;8.794;2023-11-19T15:19:28;14.90;99.90
9847;DHT22;68671;50.084;8.794;2023-11-19T15:21:55;14.90;99.90
9847;DHT22;68671;50.084;8.794;2023-11-19T15:24:22;14.80;99.90
9847;DHT22;68671;50.084;8.794;2023-11-19T15:26:50;14.70;99.90
9847;DHT22;68671;50.084;8.794;2023-11-19T15:29:17;14.70;99.90
9847;DHT22;68671;50.084;8.794;2023-11-19T15:31:46;14.60;99.90
9847;DHT22;68671;50.084;8.794;2023-11-19T15:34:13;14.70;99.90
9847;DHT22;68671;50.084;8.794;2023-11-19T15:36:40;14.70;99.90
9847;DHT22;68671;50.084;8.794;2023-11-19T15:39:07;14.70;99.90
9847;DHT22;68671;50.084;8.794;2023-11-19T15:41:34;14.60;99.90
9847;DHT22;68671;50.084;8.794;2023-11-19T15:44:01;14.60;99.90
9847;DHT22;68671;50.084;8.794;2023-11-19T15:46:29;14.60;99.90
9847;DHT22;68671;50.084;8.794;2023-11-19T15:48:57;14.60;99.90
9847;DHT22;68671;50.084;8.794;2023-11-19T15:51:24;14.60;99.90